Time;durP1;ratioP1;P1;durP2;ratioP2;P2;SDS_P1;SDS_P2;PMS_P1;PMS_P2;Temp;Humidity;BMP_temperature;BMP_pressure;BME280_temperature;BME280_humidity;BME280_pressure;Samples;Min_cycle;Max_cycle;Signal;HPM_P1;HPM_P2
2023/06/26 00:00:15;;;;;;;;;;;22.20;99.90;;;;;;7303848;19;10244;-72
2023/06/26 00:02:44;;;;;;;;;;;22.10;99.90;;;;;;7303744;19;9402;-72
2023/06/26 00:05:13;;;;;;;;;;;22.00;99.90;;;;;;7306268;19;9293;-73
2023/06/26 00:07:43;;;;;;;;;;;22.00;99.90;;;;;;7304180;19;9265;-73
2023/06/26 00:10:12;;;;;;;;;;;22.00;99.90;;;;;;7307064;19;9324;-73
2023/06/26 00:12:41;;;;;;;;;;;22.00;99.90;;;;;;7307064;19;9284;-73
2023/06/26 00:15:13;;;;;;;;;;;21.90;99.90;;;;;;7306074;19;10206;-73
2023/06/26 00:17:42;;;;;;;;;;;21.90;99.90;;;;;;7303326;19;9075;-73
2023/06/26 00:20:14;;;;;;;;;;;21.90;99.90;;;;;;7304866;19;9360;-72
2023/06/26 00:22:43;;;;;;;;;;;21.80;99.90;;;;;;7302706;19;9267;-73
2023/06/26 00:25:12;;;;;;;;;;;21.80;99.90;;;;;;7303713;19;9217;-72
2023/06/26 00:27:41;;;;;;;;;;;21.80;99.90;;;;;;7306646;19;9395;-73
2023/06/26 00:30:14;;;;;;;;;;;21.80;99.90;;;;;;7300922;19;9249;-73
2023/06/26 00:32:44;;;;;;;;;;;21.80;99.90;;;;;;7302337;19;11117;-73
2023/06/26 00:35:13;;;;;;;;;;;21.80;99.90;;;;;;7301359;19;9482;-72
2023/06/26 00:37:42;;;;;;;;;;;21.80;99.90;;;;;;7304705;19;9278;-73
2023/06/26 00:40:12;;;;;;;;;;;21.70;99.90;;;;;;7302336;19;9298;-72
2023/06/26 00:42:41;;;;;;;;;;;21.70;99.90;;;;;;7305386;19;9293;-73
2023/06/26 00:45:13;;;;;;;;;;;21.60;99.90;;;;;;7299783;19;11985;-73
2023/06/26 00:47:43;;;;;;;;;;;21.60;99.90;;;;;;7306634;19;9513;-73
2023/06/26 00:50:13;;;;;;;;;;;21.60;99.90;;;;;;7305785;19;10349;-72
2023/06/26 00:52:42;;;;;;;;;;;21.50;99.90;;;;;;7300657;19;9340;-73
2023/06/26 00:55:12;;;;;;;;;;;21.40;99.90;;;;;;7296868;19;9310;-73
2023/06/26 00:57:41;;;;;;;;;;;21.40;99.90;;;;;;7303982;19;9248;-73
2023/06/26 01:00:14;;;;;;;;;;;21.40;99.90;;;;;;7300505;19;10056;-73
2023/06/26 01:02:43;;;;;;;;;;;21.40;99.90;;;;;;7299055;19;9761;-73
2023/06/26 01:05:18;;;;;;;;;;;21.50;99.90;;;;;;7303465;19;9321;-73
2023/06/26 01:07:48;;;;;;;;;;;21.50;99.90;;;;;;7302082;19;9358;-73
2023/06/26 01:10:17;;;;;;;;;;;21.50;99.90;;;;;;7303653;19;10162;-73
2023/06/26 01:12:47;;;;;;;;;;;21.50;99.90;;;;;;7300786;19;9846;-72
2023/06/26 01:15:19;;;;;;;;;;;21.50;99.90;;;;;;7302769;19;9113;-73
2023/06/26 01:17:49;;;;;;;;;;;21.50;99.90;;;;;;7302118;19;9233;-73
2023/06/26 01:20:20;;;;;;;;;;;21.40;99.90;;;;;;7300627;19;9253;-73
2023/06/26 01:23:06;;;;;;;;;;;21.40;99.90;;;;;;7302057;19;9298;-72
2023/06/26 01:25:44;;;;;;;;;;;21.40;99.90;;;;;;7301150;19;9446;-73
2023/06/26 01:28:17;;;;;;;;;;;21.40;99.90;;;;;;7300984;19;9269;-72
2023/06/26 01:30:49;;;;;;;;;;;21.40;99.90;;;;;;7301137;19;9498;-72
2023/06/26 01:33:19;;;;;;;;;;;21.40;99.90;;;;;;7301370;19;9528;-73
2023/06/26 01:35:49;;;;;;;;;;;21.40;99.90;;;;;;7301994;19;9474;-72
2023/06/26 01:38:20;;;;;;;;;;;21.40;99.90;;;;;;7306500;19;8956;-72
2023/06/26 01:40:49;;;;;;;;;;;21.40;99.90;;;;;;7304192;19;9257;-73
2023/06/26 01:43:30;;;;;;;;;;;21.30;99.90;;;;;;7301515;19;9255;-72
2023/06/26 01:46:06;;;;;;;;;;;21.30;99.90;;;;;;7301886;19;9371;-72
2023/06/26 01:48:43;;;;;;;;;;;21.30;99.90;;;;;;7302379;19;10515;-72
2023/06/26 01:51:15;;;;;;;;;;;21.30;99.90;;;;;;7307738;19;9205;-73
2023/06/26 01:53:51;;;;;;;;;;;21.30;99.90;;;;;;7300808;19;8944;-73
2023/06/26 01:56:22;;;;;;;;;;;21.30;99.90;;;;;;7301495;19;10190;-73
2023/06/26 01:58:57;;;;;;;;;;;21.30;99.90;;;;;;7304395;19;10469;-73
2023/06/26 02:01:26;;;;;;;;;;;21.20;99.90;;;;;;7301685;19;9384;-73
2023/06/26 02:03:55;;;;;;;;;;;21.10;99.90;;;;;;7302663;19;9229;-72
2023/06/26 02:06:24;;;;;;;;;;;21.10;99.90;;;;;;7299397;19;9179;-73
2023/06/26 02:08:56;;;;;;;;;;;21.10;99.90;;;;;;7304586;19;9269;-72
2023/06/26 02:11:25;;;;;;;;;;;21.00;99.90;;;;;;7299962;19;9251;-72
2023/06/26 02:13:57;;;;;;;;;;;21.00;99.90;;;;;;7301728;19;9483;-72
2023/06/26 02:16:26;;;;;;;;;;;21.00;99.90;;;;;;7300502;19;9285;-72
2023/06/26 02:18:57;;;;;;;;;;;21.00;99.90;;;;;;7302245;19;9365;-72
2023/06/26 02:21:26;;;;;;;;;;;21.00;99.90;;;;;;7301975;19;9371;-72
2023/06/26 02:23:55;;;;;;;;;;;21.00;99.90;;;;;;7303804;19;8945;-72
2023/06/26 02:26:24;;;;;;;;;;;21.00;99.90;;;;;;7302164;19;9233;-72
2023/06/26 02:28:53;;;;;;;;;;;21.00;99.90;;;;;;7305720;19;9556;-72
2023/06/26 02:31:26;;;;;;;;;;;21.00;99.90;;;;;;7307657;19;9760;-72
2023/06/26 02:33:55;;;;;;;;;;;21.00;99.90;;;;;;7309425;19;10131;-72
2023/06/26 02:36:24;;;;;;;;;;;21.00;99.90;;;;;;7308585;19;9383;-72
2023/06/26 02:38:53;;;;;;;;;;;20.90;99.90;;;;;;7308479;19;9449;-73
2023/06/26 02:41:22;;;;;;;;;;;20.90;99.90;;;;;;7308815;19;9474;-72
2023/06/26 02:43:51;;;;;;;;;;;20.80;99.90;;;;;;7306276;19;9273;-73
2023/06/26 02:46:20;;;;;;;;;;;20.80;99.90;;;;;;7306639;19;9434;-72
2023/06/26 02:48:52;;;;;;;;;;;20.80;99.90;;;;;;7308019;19;12730;-73
2023/06/26 02:51:21;;;;;;;;;;;20.80;99.90;;;;;;7313353;19;9333;-73
2023/06/26 02:53:50;;;;;;;;;;;20.70;99.90;;;;;;7305813;19;8945;-72
2023/06/26 02:56:19;;;;;;;;;;;20.70;99.90;;;;;;7303102;19;10978;-72
2023/06/26 02:58:48;;;;;;;;;;;20.70;99.90;;;;;;7307409;19;12135;-72
2023/06/26 03:01:19;;;;;;;;;;;20.70;99.90;;;;;;7307576;19;9699;-72
2023/06/26 03:03:48;;;;;;;;;;;20.70;99.90;;;;;;7305666;19;9218;-72
2023/06/26 03:06:20;;;;;;;;;;;20.70;99.90;;;;;;7308299;19;9311;-72
2023/06/26 03:08:50;;;;;;;;;;;20.70;99.90;;;;;;7307836;19;9453;-72
2023/06/26 03:11:19;;;;;;;;;;;20.80;99.90;;;;;;7305041;19;9296;-72
2023/06/26 03:13:48;;;;;;;;;;;20.80;99.90;;;;;;7307902;19;9495;-72
2023/06/26 03:16:17;;;;;;;;;;;20.80;99.90;;;;;;7304967;19;11393;-72
2023/06/26 03:18:46;;;;;;;;;;;20.70;99.90;;;;;;7310084;19;9335;-72
2023/06/26 03:21:15;;;;;;;;;;;20.70;99.90;;;;;;7306436;19;9292;-72
2023/06/26 03:23:47;;;;;;;;;;;20.70;99.90;;;;;;7307486;19;9273;-73
2023/06/26 03:26:16;;;;;;;;;;;20.60;99.90;;;;;;7305526;19;9572;-73
2023/06/26 03:28:45;;;;;;;;;;;20.50;99.90;;;;;;7311669;19;9438;-73
2023/06/26 03:31:14;;;;;;;;;;;20.50;99.90;;;;;;7311238;19;9257;-73
2023/06/26 03:33:44;;;;;;;;;;;20.50;99.90;;;;;;7306781;19;13277;-72
2023/06/26 03:36:13;;;;;;;;;;;20.50;99.90;;;;;;7304017;19;10484;-72
2023/06/26 03:38:42;;;;;;;;;;;20.60;99.90;;;;;;7309576;19;9376;-72
2023/06/26 03:41:14;;;;;;;;;;;20.60;99.90;;;;;;7305011;19;11690;-73
2023/06/26 03:43:43;;;;;;;;;;;20.60;99.90;;;;;;7305300;19;9294;-73
2023/06/26 03:46:12;;;;;;;;;;;20.60;99.90;;;;;;7304781;19;10207;-73
2023/06/26 03:48:41;;;;;;;;;;;20.60;99.90;;;;;;7306020;19;8944;-73
2023/06/26 03:51:10;;;;;;;;;;;20.60;99.90;;;;;;7310082;19;9475;-72
2023/06/26 03:53:39;;;;;;;;;;;20.70;99.90;;;;;;7304635;19;9284;-72
2023/06/26 03:56:09;;;;;;;;;;;20.80;99.90;;;;;;7306666;19;9206;-72
2023/06/26 03:58:40;;;;;;;;;;;20.90;99.90;;;;;;7306377;19;9303;-72
2023/06/26 04:01:09;;;;;;;;;;;21.10;99.90;;;;;;7305500;19;9309;-72
2023/06/26 04:03:38;;;;;;;;;;;21.10;99.90;;;;;;7304817;19;9267;-72
2023/06/26 04:06:08;;;;;;;;;;;21.20;99.90;;;;;;7305856;19;9254;-72
2023/06/26 04:08:37;;;;;;;;;;;21.30;99.90;;;;;;7300350;19;11075;-72
2023/06/26 04:11:06;;;;;;;;;;;21.40;99.90;;;;;;7303858;19;9805;-72
2023/06/26 04:13:35;;;;;;;;;;;21.50;99.90;;;;;;7305109;19;9538;-72
2023/06/26 04:16:07;;;;;;;;;;;21.60;99.90;;;;;;7305497;19;9443;-72
2023/06/26 04:18:36;;;;;;;;;;;21.60;99.90;;;;;;7303479;19;9660;-73
2023/06/26 04:21:11;;;;;;;;;;;21.60;99.90;;;;;;7305477;19;9661;-72
2023/06/26 04:23:41;;;;;;;;;;;21.70;99.90;;;;;;7303218;19;9318;-72
2023/06/26 04:26:13;;;;;;;;;;;21.80;99.90;;;;;;7305100;19;9244;-72
2023/06/26 04:28:42;;;;;;;;;;;21.90;99.90;;;;;;7314240;19;9261;-72
2023/06/26 04:31:13;;;;;;;;;;;21.90;99.90;;;;;;7307819;19;9265;-72
2023/06/26 04:33:42;;;;;;;;;;;22.10;99.90;;;;;;7308078;19;9293;-72
2023/06/26 04:36:13;;;;;;;;;;;22.20;99.90;;;;;;7305180;19;10921;-73
2023/06/26 04:38:42;;;;;;;;;;;22.30;99.90;;;;;;7305347;19;8998;-72
2023/06/26 04:41:11;;;;;;;;;;;22.40;99.90;;;;;;7304743;19;8948;-72
2023/06/26 04:43:40;;;;;;;;;;;22.50;99.90;;;;;;7305797;19;9966;-72
2023/06/26 04:46:09;;;;;;;;;;;22.70;99.90;;;;;;7302412;19;9428;-73
2023/06/26 04:48:41;;;;;;;;;;;22.80;99.90;;;;;;7303395;19;9253;-72
2023/06/26 04:51:10;;;;;;;;;;;22.90;99.90;;;;;;7306568;19;9180;-73
2023/06/26 04:53:39;;;;;;;;;;;23.00;99.90;;;;;;7303576;19;9390;-73
2023/06/26 04:56:09;;;;;;;;;;;23.00;99.90;;;;;;7302512;19;9221;-72
2023/06/26 04:58:38;;;;;;;;;;;23.10;99.90;;;;;;7304279;19;8944;-73
2023/06/26 05:01:07;;;;;;;;;;;23.30;99.90;;;;;;7299045;19;9383;-72
2023/06/26 05:03:37;;;;;;;;;;;23.30;99.90;;;;;;7300023;19;10482;-73
2023/06/26 05:06:09;;;;;;;;;;;23.30;99.90;;;;;;7302995;19;9253;-72
2023/06/26 05:08:38;;;;;;;;;;;23.40;99.90;;;;;;7301945;19;9706;-72
2023/06/26 05:11:07;;;;;;;;;;;23.50;99.90;;;;;;7304158;19;9407;-73
2023/06/26 05:13:36;;;;;;;;;;;23.80;99.90;;;;;;7302463;19;9440;-73
2023/06/26 05:16:05;;;;;;;;;;;23.80;99.90;;;;;;7303392;19;9472;-72
2023/06/26 05:18:34;;;;;;;;;;;23.80;99.90;;;;;;7304441;19;9257;-86
2023/06/26 05:21:04;;;;;;;;;;;23.90;99.90;;;;;;7303964;19;8945;-68
2023/06/26 05:23:37;;;;;;;;;;;23.90;99.90;;;;;;7305135;19;9331;-68
2023/06/26 05:26:07;;;;;;;;;;;23.80;99.90;;;;;;7305353;19;9438;-68
2023/06/26 05:28:36;;;;;;;;;;;23.70;99.90;;;;;;7303636;19;9294;-69
2023/06/26 05:31:07;;;;;;;;;;;23.60;99.90;;;;;;7301890;19;9194;-69
2023/06/26 05:33:39;;;;;;;;;;;23.40;99.90;;;;;;7304313;19;9007;-69
2023/06/26 05:36:11;;;;;;;;;;;23.40;99.90;;;;;;7302970;19;10134;-69
2023/06/26 05:38:44;;;;;;;;;;;23.30;99.90;;;;;;7303212;19;9344;-68
2023/06/26 05:41:14;;;;;;;;;;;23.30;99.90;;;;;;7302264;19;9290;-68
2023/06/26 05:43:43;;;;;;;;;;;23.30;99.90;;;;;;7303794;19;9372;-69
2023/06/26 05:46:12;;;;;;;;;;;23.10;99.90;;;;;;7300365;19;10584;-69
2023/06/26 05:48:42;;;;;;;;;;;23.10;99.90;;;;;;7303668;19;10313;-68
2023/06/26 05:51:12;;;;;;;;;;;22.90;99.90;;;;;;7303868;19;9263;-69
2023/06/26 05:53:44;;;;;;;;;;;23.00;99.90;;;;;;7304684;19;9229;-69
2023/06/26 05:56:14;;;;;;;;;;;23.10;99.90;;;;;;7281506;19;14582;-69
2023/06/26 05:58:45;;;;;;;;;;;23.40;99.90;;;;;;7308455;19;10154;-69
2023/06/26 06:01:14;;;;;;;;;;;23.60;99.90;;;;;;7308016;19;11590;-68
2023/06/26 06:03:44;;;;;;;;;;;23.20;99.90;;;;;;7308896;19;10126;-72
2023/06/26 06:06:14;;;;;;;;;;;22.60;99.90;;;;;;7309756;19;9583;-73
2023/06/26 06:08:45;;;;;;;;;;;22.60;99.90;;;;;;7309177;19;9314;-71
2023/06/26 06:11:15;;;;;;;;;;;22.70;99.90;;;;;;7309488;19;9283;-70
2023/06/26 06:13:44;;;;;;;;;;;22.90;99.90;;;;;;7308851;19;10792;-69
2023/06/26 06:16:13;;;;;;;;;;;23.00;99.90;;;;;;7311726;19;9415;-68
2023/06/26 06:18:42;;;;;;;;;;;22.90;99.90;;;;;;7305889;19;10146;-68
2023/06/26 06:21:11;;;;;;;;;;;22.70;99.90;;;;;;7300355;19;9351;-69
2023/06/26 06:23:41;;;;;;;;;;;22.50;99.90;;;;;;7308153;19;9073;-68
2023/06/26 06:26:12;;;;;;;;;;;22.30;99.90;;;;;;7305863;19;9272;-68
2023/06/26 06:28:42;;;;;;;;;;;22.30;99.90;;;;;;7309616;19;9237;-68
2023/06/26 06:31:11;;;;;;;;;;;22.30;99.90;;;;;;7305305;19;9001;-69
2023/06/26 06:33:40;;;;;;;;;;;21.80;99.90;;;;;;7306831;19;9289;-68
2023/06/26 06:36:09;;;;;;;;;;;21.70;99.90;;;;;;7308322;19;9091;-68
2023/06/26 06:38:38;;;;;;;;;;;21.60;99.90;;;;;;7306892;19;11144;-69
2023/06/26 06:41:08;;;;;;;;;;;21.50;99.90;;;;;;7307818;19;11560;-68
2023/06/26 06:43:39;;;;;;;;;;;21.40;99.90;;;;;;7307917;19;10313;-68
2023/06/26 06:46:08;;;;;;;;;;;21.30;99.90;;;;;;7303596;19;9455;-68
2023/06/26 06:48:38;;;;;;;;;;;21.60;99.90;;;;;;7307057;19;9275;-68
2023/06/26 06:51:07;;;;;;;;;;;21.60;99.90;;;;;;7313354;19;9287;-68
2023/06/26 06:53:36;;;;;;;;;;;21.90;99.90;;;;;;7309374;19;10312;-69
2023/06/26 06:56:05;;;;;;;;;;;21.80;99.90;;;;;;7304585;19;9415;-68
2023/06/26 06:58:35;;;;;;;;;;;21.60;99.90;;;;;;7310232;19;10067;-68
2023/06/26 07:01:07;;;;;;;;;;;21.50;99.90;;;;;;7307561;19;9446;-69
2023/06/26 07:03:36;;;;;;;;;;;21.40;99.90;;;;;;7309232;19;9473;-68
2023/06/26 07:06:06;;;;;;;;;;;21.60;99.90;;;;;;7303816;19;9721;-68
2023/06/26 07:08:35;;;;;;;;;;;21.60;99.90;;;;;;7300633;19;11222;-68
2023/06/26 07:11:04;;;;;;;;;;;22.00;99.90;;;;;;7303549;19;9257;-68
2023/06/26 07:13:33;;;;;;;;;;;21.90;99.90;;;;;;7302709;19;9489;-68
2023/06/26 07:16:02;;;;;;;;;;;21.70;99.90;;;;;;7305125;19;9213;-68
2023/06/26 07:18:34;;;;;;;;;;;22.00;99.90;;;;;;7304495;19;9328;-69
2023/06/26 07:21:03;;;;;;;;;;;21.80;99.90;;;;;;7304565;19;9465;-68
2023/06/26 07:23:32;;;;;;;;;;;21.60;99.90;;;;;;7300220;19;11000;-68
2023/06/26 07:26:01;;;;;;;;;;;21.70;99.90;;;;;;7301674;19;8944;-68
2023/06/26 07:28:30;;;;;;;;;;;21.50;99.90;;;;;;7301266;19;11084;-68
2023/06/26 07:30:59;;;;;;;;;;;21.70;99.90;;;;;;7301396;19;9317;-68
2023/06/26 07:33:28;;;;;;;;;;;21.90;99.90;;;;;;7303958;19;9264;-68
2023/06/26 07:36:00;;;;;;;;;;;22.50;99.90;;;;;;7303527;19;9458;-68
2023/06/26 07:38:29;;;;;;;;;;;23.20;99.90;;;;;;7301927;19;9217;-68
2023/06/26 07:40:58;;;;;;;;;;;23.10;99.90;;;;;;7304158;19;9510;-68
2023/06/26 07:43:28;;;;;;;;;;;23.60;99.90;;;;;;7304547;19;9589;-68
2023/06/26 07:45:58;;;;;;;;;;;23.40;99.60;;;;;;7302619;19;9577;-68
2023/06/26 07:48:27;;;;;;;;;;;23.20;98.60;;;;;;7304974;19;9325;-67
2023/06/26 07:50:59;;;;;;;;;;;23.20;99.40;;;;;;7307249;19;9305;-68
2023/06/26 07:53:28;;;;;;;;;;;23.20;98.90;;;;;;7304236;19;10159;-68
2023/06/26 07:55:57;;;;;;;;;;;23.20;98.40;;;;;;7302939;19;8944;-68
2023/06/26 07:58:26;;;;;;;;;;;22.90;98.50;;;;;;7301406;19;9454;-68
2023/06/26 08:00:55;;;;;;;;;;;23.40;97.10;;;;;;7300962;19;10219;-68
2023/06/26 08:03:24;;;;;;;;;;;24.00;96.10;;;;;;7303708;19;9407;-68
2023/06/26 08:05:53;;;;;;;;;;;23.20;94.40;;;;;;7299674;19;9880;-68
2023/06/26 08:08:25;;;;;;;;;;;24.00;95.60;;;;;;7305321;19;9289;-68
2023/06/26 08:10:54;;;;;;;;;;;24.30;94.70;;;;;;7303457;19;8945;-68
2023/06/26 08:13:23;;;;;;;;;;;24.50;93.50;;;;;;7303860;19;10587;-68
2023/06/26 08:15:52;;;;;;;;;;;24.30;92.40;;;;;;7303204;19;9416;-68
2023/06/26 08:18:21;;;;;;;;;;;24.70;92.20;;;;;;7302967;19;9271;-68
2023/06/26 08:20:50;;;;;;;;;;;24.60;91.20;;;;;;7299324;19;9304;-68
2023/06/26 08:23:19;;;;;;;;;;;24.50;91.70;;;;;;7301699;19;9251;-67
2023/06/26 08:25:51;;;;;;;;;;;24.30;90.40;;;;;;7296892;19;9417;-68
2023/06/26 08:28:20;;;;;;;;;;;24.70;89.70;;;;;;7305428;19;9233;-67
2023/06/26 08:30:49;;;;;;;;;;;25.40;87.50;;;;;;7302018;19;9316;-67
2023/06/26 08:33:18;;;;;;;;;;;25.40;84.20;;;;;;7302599;19;9327;-67
2023/06/26 08:35:47;;;;;;;;;;;25.70;81.70;;;;;;7301562;19;9414;-67
2023/06/26 08:38:16;;;;;;;;;;;25.00;83.10;;;;;;7298946;19;9233;-70
2023/06/26 08:40:46;;;;;;;;;;;24.70;80.90;;;;;;7301761;19;11053;-67
2023/06/26 08:43:18;;;;;;;;;;;25.10;79.70;;;;;;7301354;19;9245;-67
2023/06/26 08:45:51;;;;;;;;;;;25.10;78.90;;;;;;7303105;19;8952;-66
2023/06/26 08:48:23;;;;;;;;;;;24.90;79.80;;;;;;7301979;19;9461;-67
2023/06/26 08:50:54;;;;;;;;;;;24.30;81.40;;;;;;7305246;19;10156;-67
2023/06/26 08:53:32;;;;;;;;;;;24.50;81.50;;;;;;7304432;19;9321;-68
2023/06/26 08:56:03;;;;;;;;;;;23.90;81.40;;;;;;7305116;19;9358;-67
2023/06/26 08:58:36;;;;;;;;;;;23.40;84.90;;;;;;7304646;19;9274;-67
2023/06/26 09:01:06;;;;;;;;;;;23.20;87.80;;;;;;7302018;19;9391;-66
2023/06/26 09:03:36;;;;;;;;;;;23.20;89.60;;;;;;7301882;19;9334;-68
2023/06/26 09:06:06;;;;;;;;;;;23.00;88.10;;;;;;7300892;19;9388;-66
2023/06/26 09:08:35;;;;;;;;;;;23.30;89.30;;;;;;7300645;19;9220;-67
2023/06/26 09:11:04;;;;;;;;;;;23.10;89.20;;;;;;7299238;19;9289;-66
2023/06/26 09:13:36;;;;;;;;;;;22.90;89.90;;;;;;7302912;19;8944;-66
2023/06/26 09:16:10;;;;;;;;;;;23.20;90.60;;;;;;7300946;19;9260;-66
2023/06/26 09:18:39;;;;;;;;;;;23.10;90.40;;;;;;7303568;19;9526;-66
2023/06/26 09:21:14;;;;;;;;;;;22.80;90.90;;;;;;7298657;19;9515;-67
2023/06/26 09:23:43;;;;;;;;;;;22.70;91.30;;;;;;7300206;19;9277;-66
2023/06/26 09:26:17;;;;;;;;;;;23.00;91.90;;;;;;7299022;19;9443;-66
2023/06/26 09:28:51;;;;;;;;;;;23.00;90.10;;;;;;7298729;19;9536;-66
2023/06/26 09:31:20;;;;;;;;;;;22.80;90.90;;;;;;7299456;19;9478;-66
2023/06/26 09:33:50;;;;;;;;;;;22.60;91.50;;;;;;7298237;19;9287;-66
2023/06/26 09:36:23;;;;;;;;;;;22.70;92.20;;;;;;7295042;19;9451;-66
2023/06/26 09:38:52;;;;;;;;;;;22.80;92.00;;;;;;7292130;19;9245;-66
2023/06/26 09:41:21;;;;;;;;;;;22.90;92.00;;;;;;7301885;19;9237;-68
2023/06/26 09:43:55;;;;;;;;;;;22.70;91.10;;;;;;7302450;19;9117;-67
2023/06/26 09:46:29;;;;;;;;;;;22.60;91.20;;;;;;7299267;19;10150;-67
2023/06/26 09:49:04;;;;;;;;;;;22.40;92.00;;;;;;7302649;19;10322;-67
2023/06/26 09:51:34;;;;;;;;;;;22.30;93.20;;;;;;7306467;19;9253;-66
2023/06/26 09:54:04;;;;;;;;;;;22.50;92.40;;;;;;7301232;19;9498;-66
2023/06/26 09:56:34;;;;;;;;;;;22.70;91.90;;;;;;7298708;19;9254;-67
2023/06/26 09:59:08;;;;;;;;;;;22.80;90.90;;;;;;7298443;19;10867;-66
2023/06/26 10:01:44;;;;;;;;;;;23.10;90.30;;;;;;7299037;19;9307;-66
2023/06/26 10:04:14;;;;;;;;;;;23.60;90.70;;;;;;7299934;19;9516;-66
2023/06/26 10:06:49;;;;;;;;;;;23.70;90.00;;;;;;7296364;19;9234;-67
2023/06/26 10:09:20;;;;;;;;;;;23.80;89.20;;;;;;7300219;19;9262;-66
2023/06/26 10:11:55;;;;;;;;;;;23.50;86.10;;;;;;7298980;19;9277;-66
2023/06/26 10:14:30;;;;;;;;;;;23.30;86.00;;;;;;7298173;19;9809;-66
2023/06/26 10:17:02;;;;;;;;;;;23.00;85.30;;;;;;7299534;19;9349;-66
2023/06/26 10:19:34;;;;;;;;;;;23.30;85.10;;;;;;7296959;19;9403;-66
2023/06/26 10:22:06;;;;;;;;;;;23.60;84.80;;;;;;7300232;19;9836;-69
2023/06/26 10:24:39;;;;;;;;;;;23.90;82.50;;;;;;7299037;19;9459;-66
2023/06/26 10:27:17;;;;;;;;;;;23.60;80.60;;;;;;7297651;19;8944;-67
2023/06/26 10:29:53;;;;;;;;;;;23.40;81.40;;;;;;7295429;19;9792;-66
2023/06/26 10:32:26;;;;;;;;;;;23.10;81.40;;;;;;7299612;19;9283;-67
2023/06/26 10:34:56;;;;;;;;;;;23.50;82.20;;;;;;7297873;19;9650;-67
2023/06/26 10:37:44;;;;;;;;;;;23.70;81.70;;;;;;7302259;19;9292;-67
2023/06/26 10:40:15;;;;;;;;;;;23.60;78.00;;;;;;7298196;19;9449;-66
2023/06/26 10:42:44;;;;;;;;;;;23.50;76.50;;;;;;7296882;19;9463;-67
2023/06/26 10:45:18;;;;;;;;;;;23.40;76.20;;;;;;7304578;19;9323;-67
2023/06/26 10:47:51;;;;;;;;;;;23.30;76.20;;;;;;7302135;19;9877;-67
2023/06/26 10:50:26;;;;;;;;;;;23.60;75.60;;;;;;7309270;19;9804;-67
2023/06/26 10:53:19;;;;;;;;;;;23.60;73.00;;;;;;7304893;19;9272;-67
2023/06/26 10:55:53;;;;;;;;;;;23.90;73.40;;;;;;7303788;19;10461;-67
2023/06/26 10:58:43;;;;;;;;;;;24.10;72.40;;;;;;7303928;19;9235;-66
2023/06/26 11:01:25;;;;;;;;;;;24.20;72.70;;;;;;7302153;19;9158;-67
2023/06/26 11:04:07;;;;;;;;;;;24.10;75.10;;;;;;7306214;19;9292;-69
2023/06/26 11:06:38;;;;;;;;;;;23.80;72.60;;;;;;7305581;19;9233;-68
2023/06/26 11:09:13;;;;;;;;;;;23.60;73.10;;;;;;7307282;19;9087;-66
2023/06/26 11:12:04;;;;;;;;;;;23.80;71.60;;;;;;7304944;19;9597;-67
2023/06/26 11:14:34;;;;;;;;;;;24.00;68.60;;;;;;7304370;19;9426;-67
2023/06/26 11:17:10;;;;;;;;;;;24.20;70.20;;;;;;7308406;19;9249;-67
2023/06/26 11:19:45;;;;;;;;;;;24.20;70.50;;;;;;7307741;19;9267;-68
2023/06/26 11:22:17;;;;;;;;;;;24.20;70.00;;;;;;7306967;19;9250;-67
2023/06/26 11:24:47;;;;;;;;;;;24.20;68.40;;;;;;7308036;19;9056;-67
2023/06/26 11:27:16;;;;;;;;;;;24.10;66.50;;;;;;7302220;19;9260;-66
2023/06/26 11:29:51;;;;;;;;;;;24.00;65.10;;;;;;7302760;19;8997;-67
2023/06/26 11:32:22;;;;;;;;;;;24.20;66.30;;;;;;7302849;19;10969;-66
2023/06/26 11:34:51;;;;;;;;;;;23.60;69.60;;;;;;7303081;19;10142;-66
2023/06/26 11:37:22;;;;;;;;;;;23.80;71.40;;;;;;7297169;19;9367;-67
2023/06/26 11:39:51;;;;;;;;;;;24.00;70.60;;;;;;7298277;19;9447;-67
2023/06/26 11:42:20;;;;;;;;;;;23.60;68.10;;;;;;7304054;19;9242;-66
2023/06/26 11:44:50;;;;;;;;;;;24.00;70.40;;;;;;7298023;19;9312;-66
2023/06/26 11:47:23;;;;;;;;;;;24.20;68.50;;;;;;7301649;19;10142;-67
2023/06/26 11:49:53;;;;;;;;;;;24.10;67.80;;;;;;7304672;19;9217;-66
2023/06/26 11:52:22;;;;;;;;;;;24.00;69.70;;;;;;7305910;19;10100;-67
2023/06/26 11:54:51;;;;;;;;;;;24.10;70.60;;;;;;7301639;19;9545;-67
2023/06/26 11:57:20;;;;;;;;;;;24.20;66.70;;;;;;7298504;19;8948;-66
2023/06/26 11:59:54;;;;;;;;;;;24.00;66.10;;;;;;7301878;19;9250;-68
2023/06/26 12:02:26;;;;;;;;;;;23.70;66.50;;;;;;7303962;19;9226;-69
2023/06/26 12:04:55;;;;;;;;;;;23.30;65.90;;;;;;7299134;19;10916;-66
2023/06/26 12:07:26;;;;;;;;;;;23.20;67.20;;;;;;7288706;19;9315;-68
2023/06/26 12:09:57;;;;;;;;;;;23.50;69.60;;;;;;7303364;19;9317;-67
2023/06/26 12:12:27;;;;;;;;;;;23.90;67.60;;;;;;7303038;19;9269;-67
2023/06/26 12:14:57;;;;;;;;;;;23.90;64.40;;;;;;7301727;19;9051;-68
2023/06/26 12:17:29;;;;;;;;;;;23.80;68.20;;;;;;7305548;19;9812;-67
2023/06/26 12:19:58;;;;;;;;;;;23.90;69.40;;;;;;7305393;19;9507;-69
2023/06/26 12:22:35;;;;;;;;;;;23.80;67.80;;;;;;7305036;19;9011;-68
2023/06/26 12:25:05;;;;;;;;;;;23.80;69.10;;;;;;7302645;19;9686;-68
2023/06/26 12:27:34;;;;;;;;;;;23.60;68.30;;;;;;7302424;19;9288;-68
2023/06/26 12:30:08;;;;;;;;;;;23.60;69.40;;;;;;7304758;19;9321;-67
2023/06/26 12:32:39;;;;;;;;;;;23.50;66.90;;;;;;7305006;19;9266;-67
2023/06/26 12:35:11;;;;;;;;;;;23.50;66.20;;;;;;7303439;19;9386;-68
2023/06/26 12:37:42;;;;;;;;;;;23.70;67.30;;;;;;7305007;19;9460;-68
2023/06/26 12:40:21;;;;;;;;;;;23.40;68.50;;;;;;7304550;19;9408;-68
2023/06/26 12:42:51;;;;;;;;;;;23.60;68.80;;;;;;7305010;19;9305;-67
2023/06/26 12:45:20;;;;;;;;;;;23.50;67.20;;;;;;7302579;19;9465;-67
2023/06/26 12:47:52;;;;;;;;;;;23.60;67.70;;;;;;7303228;19;9388;-67
2023/06/26 12:50:25;;;;;;;;;;;23.60;68.00;;;;;;7306380;19;9261;-67
2023/06/26 12:52:54;;;;;;;;;;;23.50;68.70;;;;;;7302826;19;9225;-67
2023/06/26 12:55:23;;;;;;;;;;;23.50;69.20;;;;;;7301210;19;9754;-67
2023/06/26 12:57:52;;;;;;;;;;;23.20;69.40;;;;;;7298734;19;10507;-67
2023/06/26 13:00:23;;;;;;;;;;;23.30;70.70;;;;;;7299415;19;9720;-67
2023/06/26 13:02:55;;;;;;;;;;;23.60;69.40;;;;;;7303093;19;9237;-68
2023/06/26 13:05:24;;;;;;;;;;;23.30;67.40;;;;;;7302362;19;9253;-67
2023/06/26 13:07:53;;;;;;;;;;;23.50;68.20;;;;;;7300960;19;8948;-67
2023/06/26 13:10:22;;;;;;;;;;;23.80;68.40;;;;;;7301578;19;10403;-68
2023/06/26 13:12:51;;;;;;;;;;;23.90;67.20;;;;;;7300325;19;9274;-69
2023/06/26 13:15:20;;;;;;;;;;;24.00;66.50;;;;;;7301801;19;9539;-66
2023/06/26 13:17:49;;;;;;;;;;;23.80;67.50;;;;;;7303666;19;9249;-68
2023/06/26 13:20:21;;;;;;;;;;;23.60;67.50;;;;;;7304295;19;9394;-67
2023/06/26 13:22:50;;;;;;;;;;;23.40;68.70;;;;;;7302930;19;9447;-67
2023/06/26 13:25:19;;;;;;;;;;;23.30;69.00;;;;;;7304793;19;8944;-67
2023/06/26 13:27:49;;;;;;;;;;;23.00;67.50;;;;;;7303130;19;9338;-68
2023/06/26 13:30:18;;;;;;;;;;;22.90;68.20;;;;;;7303909;19;9107;-68
2023/06/26 13:32:47;;;;;;;;;;;23.00;65.90;;;;;;7303506;19;9414;-67
2023/06/26 13:35:17;;;;;;;;;;;22.90;65.20;;;;;;7306216;19;9116;-67
2023/06/26 13:37:48;;;;;;;;;;;22.90;65.20;;;;;;7276981;19;12102;-68
2023/06/26 13:40:17;;;;;;;;;;;22.90;65.30;;;;;;7281826;19;9716;-68
2023/06/26 13:42:47;;;;;;;;;;;23.20;66.00;;;;;;7282649;19;9492;-69
2023/06/26 13:45:16;;;;;;;;;;;23.30;65.30;;;;;;7280134;19;9363;-70
2023/06/26 13:47:45;;;;;;;;;;;23.20;65.50;;;;;;7278976;19;9554;-67
2023/06/26 13:50:14;;;;;;;;;;;23.10;65.70;;;;;;7283946;19;11472;-71
2023/06/26 13:52:43;;;;;;;;;;;23.10;66.90;;;;;;7279083;19;9763;-68
2023/06/26 13:55:15;;;;;;;;;;;23.10;66.90;;;;;;7281945;19;11286;-67
2023/06/26 13:57:44;;;;;;;;;;;23.10;66.80;;;;;;7284507;19;9497;-68
2023/06/26 14:00:19;;;;;;;;;;;22.80;65.60;;;;;;7279576;19;9555;-67
2023/06/26 14:02:48;;;;;;;;;;;22.40;67.10;;;;;;7281535;19;9509;-67
2023/06/26 14:05:18;;;;;;;;;;;22.40;67.80;;;;;;7280762;19;9336;-68
2023/06/26 14:07:47;;;;;;;;;;;22.60;68.80;;;;;;7275821;19;9239;-66
2023/06/26 14:10:19;;;;;;;;;;;22.50;68.10;;;;;;7280460;19;10162;-66
2023/06/26 14:12:48;;;;;;;;;;;22.50;68.60;;;;;;7271341;19;9340;-66
2023/06/26 14:15:17;;;;;;;;;;;22.60;69.50;;;;;;7279185;19;9453;-66
2023/06/26 14:17:47;;;;;;;;;;;22.60;71.60;;;;;;7277873;19;9846;-67
2023/06/26 14:20:16;;;;;;;;;;;22.60;70.10;;;;;;7281413;19;10579;-66
2023/06/26 14:22:46;;;;;;;;;;;22.70;71.20;;;;;;7284922;19;9472;-66
2023/06/26 14:25:19;;;;;;;;;;;22.70;70.10;;;;;;7284918;19;9547;-67
2023/06/26 14:27:48;;;;;;;;;;;22.50;71.10;;;;;;7282634;19;9362;-65
2023/06/26 14:30:17;;;;;;;;;;;22.70;70.70;;;;;;7284982;19;9624;-65
2023/06/26 14:32:46;;;;;;;;;;;22.80;70.80;;;;;;7286212;19;10221;-66
2023/06/26 14:35:15;;;;;;;;;;;22.90;70.80;;;;;;7285048;19;9336;-66
2023/06/26 14:37:45;;;;;;;;;;;23.10;71.00;;;;;;7285486;19;11560;-67
2023/06/26 14:40:15;;;;;;;;;;;22.80;69.30;;;;;;7285328;19;10076;-66
2023/06/26 14:42:47;;;;;;;;;;;22.70;68.90;;;;;;7286008;19;9385;-66
2023/06/26 14:45:17;;;;;;;;;;;22.50;70.30;;;;;;7287113;19;9804;-66
2023/06/26 14:47:46;;;;;;;;;;;22.30;70.70;;;;;;7283673;19;9729;-66